Fort Stockton, TX

7:45 PM CDT on May 03, 2015 (GMT -0500)
Winkler County | | Change Station
CLOSE
Current Station
Airport
Location: Wink,
Elevation: 2822 ft
Nearby Weather Stations
Active Advisory: Special Weather Statement

Elev 2822 ft 31.78 °N, 103.20 °W | Updated 24 minutes ago

Partly Cloudy
Partly Cloudy
74 °F
Feels Like 74 °F
N
14
Wind Variable Wind from SW

Today
High -- | Low -- °F
--% Chance of Precip.
Yesterday
High -- | Low -- °F
Precip. -- in
7:05 AM 8:31 PM
Full, 100% visible
Pressure 29.87 in
Visibility 10.0 miles
Clouds Scattered Clouds 11000 ft
Dew Point 47 °F
Humidity 38%
Rainfall 0.00 in
Snow Depth Not available.
UV 1 out of 12
Pollen 7.20 out of 12
Air Quality Not available.
Flu Activity Sporadic
SPECI KINK 040021Z AUTO 23012KT 10SM SCT110 23/08 A2987 RMK AO2 WSHFT 0001 LTG DSNT N AND NW T02330083

More Conditions Fewer Conditions

Pressure 29.87 in
Visibility 10.0 miles
Clouds Scattered Clouds 11000 ft
Dew Point 47 °F
Humidity 38%
Rainfall 0.00 in
Snow Depth Not available.
UV 1 out of 12
Pollen 7.20 out of 12
Air Quality Not available.
Flu Activity Sporadic
SPECI KINK 040021Z AUTO 23012KT 10SM SCT110 23/08 A2987 RMK AO2 WSHFT 0001 LTG DSNT N AND NW T02330083

More Conditions Fewer Conditions

Nepal has a long way to go to dig out and rebuild from a devastating earthquake. We have teamed up with several charities and organizations to make contributing to the relief effort as easy as possible.
How you can help: Portlight Strategies | Red Cross

10-Day Weather Forecast

Almanac

Astronomy

May. 03, 2015 Rise Set
Actual Time
Civil Twilight
Nautical Twilight
Astronomical Twilight
Moon
Length of Visible Light
Length of Day
Tomorrow will be .
, % of the Moon is Illuminated

Today's Extremes

State Highs State Lows

Community

WunderPhotos

Upload Photos

1,818,446 photos uploaded!

WunderBlogs® & News

Nearby

Air Quality

  Air Quality AQ Index Pollutant
Not available.

Snow Depth

Station Depth Elevation

Earthquake Activity

City Distance Mag. Time & Date
Minimum magnitude displayed is 2.5.

Coastal Water Temperatures

Place Temperature

Stations

Nearby Weather Stations

Station Location Temp. Windchill Dew Point Humidity Wind Precip. Elev Updated Type
                   
Special Weather Statement
Statement as of 7:01 PM CDT on May 03, 2015

... Significant weather advisory for strong thunderstorms affecting
north central Brewster... southeastern Jeff Davis and west central
Pecos counties until 745 PM CDT...

A strong thunderstorm was located 7 miles northeast of
Alpine-Casparis Municipal Airport at 701 PM CDT... moving east at 20
mph. Small hail and gusty winds are possible with this storm.

Precautionary/preparedness actions...

Gusty winds... hail... heavy rain... and deadly lightning are
possible.


Lat... Lon 3066 10319 3015 10319 3038 10370 3053 10365
time... Mot... loc 0001z 267deg 15kt 3047 10360